Time;durP1;ratioP1;P1;durP2;ratioP2;P2;SDS_P1;SDS_P2;PMS_P1;PMS_P2;Temp;Humidity;BMP_temperature;BMP_pressure;BME280_temperature;BME280_humidity;BME280_pressure;Samples;Min_cycle;Max_cycle;Signal;HPM_P1;HPM_P2
2024/01/28 00:02:25;;;;;;;28.23;8.27;;;;;;;;;;5072393;28;20437;-66
2024/01/28 00:04:53;;;;;;;25.00;7.20;;;;;;;;;;5056304;28;20060;-66
2024/01/28 00:07:20;;;;;;;21.95;7.13;;;;;;;;;;5079980;28;20064;-66
2024/01/28 00:09:47;;;;;;;26.92;7.70;;;;;;;;;;5074187;28;20067;-66
2024/01/28 00:12:14;;;;;;;27.25;7.18;;;;;;;;;;5070720;28;20518;-66
2024/01/28 00:14:41;;;;;;;25.95;8.07;;;;;;;;;;5070210;28;20067;-66
2024/01/28 00:17:10;;;;;;;27.25;7.32;;;;;;;;;;5068244;28;20040;-66
2024/01/28 00:19:37;;;;;;;24.23;5.88;;;;;;;;;;5076063;28;20075;-66
2024/01/28 00:22:05;;;;;;;26.10;7.15;;;;;;;;;;5074127;28;20530;-65
2024/01/28 00:24:32;;;;;;;21.25;5.93;;;;;;;;;;5075433;28;20052;-65
2024/01/28 00:26:59;;;;;;;19.25;6.18;;;;;;;;;;5077031;28;20055;-66
2024/01/28 00:29:28;;;;;;;25.38;5.80;;;;;;;;;;5079375;28;20047;-66
2024/01/28 00:31:56;;;;;;;19.88;6.20;;;;;;;;;;5068847;28;20052;-66
2024/01/28 00:34:26;;;;;;;20.00;6.63;;;;;;;;;;5072768;28;20052;-66
2024/01/28 00:36:53;;;;;;;17.95;5.38;;;;;;;;;;5075638;28;20798;-66
2024/01/28 00:39:21;;;;;;;18.48;5.82;;;;;;;;;;5080149;28;20048;-65
2024/01/28 00:41:48;;;;;;;21.58;5.85;;;;;;;;;;5055477;28;20064;-66
2024/01/28 00:44:15;;;;;;;22.25;5.55;;;;;;;;;;5072407;28;20056;-66
2024/01/28 00:46:42;;;;;;;26.85;6.78;;;;;;;;;;5076990;28;20052;-66
2024/01/28 00:49:11;;;;;;;18.88;5.88;;;;;;;;;;5070869;28;20059;-66
2024/01/28 00:51:39;;;;;;;17.77;5.18;;;;;;;;;;5072131;28;20048;-66
2024/01/28 00:54:07;;;;;;;17.25;4.82;;;;;;;;;;5078645;28;20044;-66
2024/01/28 00:56:34;;;;;;;22.80;5.35;;;;;;;;;;5074478;28;20403;-66
2024/01/28 00:59:01;;;;;;;14.77;4.95;;;;;;;;;;5070048;28;20052;-66
2024/01/28 01:01:29;;;;;;;16.65;4.72;;;;;;;;;;5072899;28;20054;-66
2024/01/28 01:03:56;;;;;;;20.55;5.38;;;;;;;;;;5074406;28;20549;-66
2024/01/28 01:06:23;;;;;;;20.63;5.45;;;;;;;;;;5060295;28;20468;-66
2024/01/28 01:08:52;;;;;;;22.05;5.22;;;;;;;;;;5055703;28;20075;-66
2024/01/28 01:11:19;;;;;;;17.10;5.38;;;;;;;;;;5073475;28;20083;-66
2024/01/28 01:13:47;;;;;;;14.82;4.78;;;;;;;;;;5077871;28;20063;-66
2024/01/28 01:16:14;;;;;;;16.48;4.68;;;;;;;;;;5083604;28;20047;-66
2024/01/28 01:18:41;;;;;;;18.33;5.20;;;;;;;;;;5078585;28;20484;-66
2024/01/28 01:21:08;;;;;;;16.42;4.53;;;;;;;;;;5051402;28;20060;-66
2024/01/28 01:23:36;;;;;;;18.33;4.95;;;;;;;;;;5071203;28;20044;-66
2024/01/28 01:26:04;;;;;;;20.10;4.97;;;;;;;;;;5075460;28;20487;-66
2024/01/28 01:28:32;;;;;;;13.70;5.10;;;;;;;;;;5079033;28;20056;-66
2024/01/28 01:30:59;;;;;;;16.67;4.78;;;;;;;;;;5082165;28;20052;-66
2024/01/28 01:33:27;;;;;;;19.25;5.43;;;;;;;;;;5085127;28;20047;-66
2024/01/28 01:35:54;;;;;;;17.80;5.22;;;;;;;;;;5083532;28;20048;-66
2024/01/28 01:38:21;;;;;;;21.80;5.18;;;;;;;;;;5086333;28;20475;-66
2024/01/28 01:40:49;;;;;;;15.85;4.10;;;;;;;;;;5073996;28;20216;-66
2024/01/28 01:43:17;;;;;;;22.95;4.88;;;;;;;;;;5080932;28;20051;-66
2024/01/28 01:45:45;;;;;;;19.27;5.20;;;;;;;;;;5079434;28;20486;-66
2024/01/28 01:48:13;;;;;;;16.15;5.18;;;;;;;;;;5073852;28;20566;-66
2024/01/28 01:50:41;;;;;;;14.75;5.05;;;;;;;;;;5073173;28;20048;-66
2024/01/28 01:53:10;;;;;;;17.48;4.82;;;;;;;;;;5079140;28;20051;-66
2024/01/28 01:55:39;;;;;;;17.23;5.88;;;;;;;;;;5081436;28;20399;-66
2024/01/28 01:58:07;;;;;;;14.43;4.88;;;;;;;;;;5057621;28;20048;-66
2024/01/28 02:00:36;;;;;;;10.27;3.90;;;;;;;;;;5078064;28;20052;-66
2024/01/28 02:03:03;;;;;;;17.55;5.00;;;;;;;;;;5087122;28;20055;-66
2024/01/28 02:05:31;;;;;;;13.40;4.43;;;;;;;;;;5073595;28;20127;-66
2024/01/28 02:07:58;;;;;;;19.45;5.13;;;;;;;;;;5075542;28;20139;-66
2024/01/28 02:10:25;;;;;;;14.18;4.68;;;;;;;;;;5074189;28;20059;-66
2024/01/28 02:12:52;;;;;;;16.80;5.18;;;;;;;;;;5057598;28;20060;-66
2024/01/28 02:15:21;;;;;;;15.65;4.75;;;;;;;;;;5076679;28;20056;-66
2024/01/28 02:17:50;;;;;;;15.23;3.75;;;;;;;;;;5081035;28;20059;-65
2024/01/28 02:20:17;;;;;;;15.63;4.45;;;;;;;;;;5078518;28;20055;-66
2024/01/28 02:22:44;;;;;;;12.70;4.88;;;;;;;;;;5074797;28;20538;-66
2024/01/28 02:25:13;;;;;;;15.23;4.70;;;;;;;;;;5081536;28;20063;-66
2024/01/28 02:27:41;;;;;;;14.20;4.63;;;;;;;;;;5070913;28;20483;-66
2024/01/28 02:30:09;;;;;;;21.13;4.20;;;;;;;;;;5075534;28;20055;-66
2024/01/28 02:32:36;;;;;;;12.73;4.18;;;;;;;;;;5060735;28;20044;-66
2024/01/28 02:35:03;;;;;;;12.45;4.35;;;;;;;;;;5085285;28;20052;-66
2024/01/28 02:37:30;;;;;;;16.00;4.07;;;;;;;;;;5071360;28;20419;-66
2024/01/28 02:39:58;;;;;;;13.55;4.55;;;;;;;;;;5080774;28;20040;-66
2024/01/28 02:42:26;;;;;;;13.73;3.95;;;;;;;;;;5061327;28;20129;-66
2024/01/28 02:44:54;;;;;;;13.02;3.90;;;;;;;;;;5082653;28;20495;-66
2024/01/28 02:47:21;;;;;;;12.95;3.72;;;;;;;;;;5060055;28;20049;-66
2024/01/28 02:49:49;;;;;;;20.25;4.28;;;;;;;;;;5085676;28;20040;-66
2024/01/28 02:52:16;;;;;;;16.55;4.13;;;;;;;;;;5074261;28;20055;-66
2024/01/28 02:54:43;;;;;;;18.63;4.00;;;;;;;;;;5082882;28;20495;-66
2024/01/28 02:57:10;;;;;;;15.85;4.47;;;;;;;;;;5082669;28;20507;-66
2024/01/28 02:59:39;;;;;;;21.27;3.92;;;;;;;;;;5078036;28;20044;-66
2024/01/28 03:02:07;;;;;;;10.95;4.22;;;;;;;;;;5082316;28;20110;-66
2024/01/28 03:04:37;;;;;;;14.23;3.63;;;;;;;;;;5087971;28;20044;-66
2024/01/28 03:07:04;;;;;;;15.38;3.65;;;;;;;;;;5082482;28;20493;-66
2024/01/28 03:09:31;;;;;;;15.35;3.20;;;;;;;;;;5083770;28;20059;-66
2024/01/28 03:11:59;;;;;;;17.65;4.95;;;;;;;;;;5077863;28;20076;-66
2024/01/28 03:14:26;;;;;;;21.13;4.05;;;;;;;;;;5086524;28;20047;-66
2024/01/28 03:16:55;;;;;;;11.15;3.58;;;;;;;;;;5073708;28;20516;-66
2024/01/28 03:19:22;;;;;;;17.80;4.00;;;;;;;;;;5073220;28;20419;-66
2024/01/28 03:21:49;;;;;;;18.60;4.30;;;;;;;;;;5075069;28;20054;-66
2024/01/28 03:24:17;;;;;;;20.73;4.72;;;;;;;;;;5060097;28;20045;-66
2024/01/28 03:26:44;;;;;;;16.98;3.75;;;;;;;;;;5080925;28;20118;-66
2024/01/28 03:29:13;;;;;;;8.73;3.25;;;;;;;;;;5072577;28;20052;-65
2024/01/28 03:31:40;;;;;;;14.40;3.67;;;;;;;;;;5078857;28;20067;-66
2024/01/28 03:34:09;;;;;;;8.25;3.50;;;;;;;;;;5078169;28;20659;-65
2024/01/28 03:36:37;;;;;;;15.55;4.60;;;;;;;;;;5077373;28;20447;-65
2024/01/28 03:39:05;;;;;;;15.65;4.00;;;;;;;;;;5076411;28;20063;-65
2024/01/28 03:41:32;;;;;;;14.57;4.05;;;;;;;;;;5082548;28;20044;-65
2024/01/28 03:43:59;;;;;;;12.40;4.57;;;;;;;;;;5077005;28;20055;-65
2024/01/28 03:46:26;;;;;;;12.52;4.95;;;;;;;;;;5081869;28;20415;-65
2024/01/28 03:48:54;;;;;;;12.32;4.03;;;;;;;;;;5078096;28;20222;-66
2024/01/28 03:51:22;;;;;;;14.98;4.90;;;;;;;;;;5078351;28;20044;-65
2024/01/28 03:53:50;;;;;;;18.63;5.55;;;;;;;;;;5073402;28;20343;-66
2024/01/28 03:56:17;;;;;;;14.85;4.72;;;;;;;;;;5061383;28;20490;-65
2024/01/28 03:58:44;;;;;;;16.42;5.32;;;;;;;;;;5078469;28;20040;-65
2024/01/28 04:01:11;;;;;;;10.73;4.75;;;;;;;;;;5074554;28;20052;-65
2024/01/28 04:03:39;;;;;;;12.77;5.07;;;;;;;;;;5080542;28;20044;-65
2024/01/28 04:06:07;;;;;;;20.92;5.80;;;;;;;;;;5082542;28;20554;-65
2024/01/28 04:08:35;;;;;;;16.23;5.85;;;;;;;;;;5078384;28;20040;-65
2024/01/28 04:11:05;;;;;;;19.13;6.57;;;;;;;;;;5081122;28;20555;-66
2024/01/28 04:13:32;;;;;;;21.50;5.82;;;;;;;;;;5082944;28;20047;-65
2024/01/28 04:16:00;;;;;;;19.65;5.70;;;;;;;;;;5076167;28;20044;-65
2024/01/28 04:18:27;;;;;;;18.42;5.65;;;;;;;;;;5077870;28;20391;-65
2024/01/28 04:20:54;;;;;;;18.83;5.75;;;;;;;;;;5078590;28;20044;-65
2024/01/28 04:23:21;;;;;;;15.93;5.60;;;;;;;;;;5078738;28;20497;-65
2024/01/28 04:25:50;;;;;;;18.00;5.60;;;;;;;;;;5074828;28;20206;-65
2024/01/28 04:28:17;;;;;;;13.80;5.65;;;;;;;;;;5080963;28;20040;-65
2024/01/28 04:30:45;;;;;;;20.90;5.57;;;;;;;;;;5058582;28;20099;-65
2024/01/28 04:33:12;;;;;;;16.38;5.45;;;;;;;;;;5063532;28;20060;-66
2024/01/28 04:35:39;;;;;;;20.77;5.78;;;;;;;;;;5066122;28;20068;-65
2024/01/28 04:38:07;;;;;;;17.70;4.97;;;;;;;;;;5080593;28;20078;-66
2024/01/28 04:40:34;;;;;;;22.00;6.32;;;;;;;;;;5071003;28;20052;-65
2024/01/28 04:43:03;;;;;;;16.35;5.60;;;;;;;;;;5083316;28;20101;-65
2024/01/28 04:45:30;;;;;;;22.13;6.75;;;;;;;;;;5071138;28;20049;-65
2024/01/28 04:47:57;;;;;;;19.00;5.75;;;;;;;;;;5073556;28;20064;-65
2024/01/28 04:50:25;;;;;;;14.88;5.32;;;;;;;;;;5076451;28;20055;-65
2024/01/28 04:52:52;;;;;;;24.70;6.25;;;;;;;;;;5079506;28;20053;-65
2024/01/28 04:55:19;;;;;;;20.10;6.47;;;;;;;;;;5078377;28;20102;-65
2024/01/28 04:57:47;;;;;;;16.23;5.80;;;;;;;;;;5080560;28;20144;-65
2024/01/28 05:00:16;;;;;;;20.65;6.65;;;;;;;;;;5075314;28;20040;-65
2024/01/28 05:02:43;;;;;;;18.83;6.38;;;;;;;;;;5077278;28;20057;-65
2024/01/28 05:05:10;;;;;;;19.13;6.13;;;;;;;;;;5078965;28;20427;-65
2024/01/28 05:07:38;;;;;;;17.15;6.28;;;;;;;;;;5077996;28;20040;-65
2024/01/28 05:10:08;;;;;;;21.60;6.35;;;;;;;;;;5077293;28;20056;-65
2024/01/28 05:12:36;;;;;;;16.88;6.55;;;;;;;;;;5075931;28;20147;-65
2024/01/28 05:15:04;;;;;;;21.83;5.90;;;;;;;;;;5089776;28;20129;-65
2024/01/28 05:17:33;;;;;;;16.65;6.05;;;;;;;;;;5073283;28;20127;-66
2024/01/28 05:20:00;;;;;;;18.13;5.82;;;;;;;;;;5076117;28;20512;-66
2024/01/28 05:22:27;;;;;;;26.05;6.38;;;;;;;;;;5080146;28;20055;-66
2024/01/28 05:24:55;;;;;;;20.63;5.97;;;;;;;;;;5080752;28;20052;-65
2024/01/28 05:27:22;;;;;;;16.02;6.05;;;;;;;;;;5074739;28;20055;-65
2024/01/28 05:29:49;;;;;;;16.20;6.55;;;;;;;;;;5075906;28;20053;-65
2024/01/28 05:32:17;;;;;;;17.60;7.03;;;;;;;;;;5075229;28;20480;-65
2024/01/28 05:34:46;;;;;;;20.20;7.30;;;;;;;;;;5085070;28;20044;-65
2024/01/28 05:37:15;;;;;;;16.23;6.18;;;;;;;;;;5076140;28;20055;-66
2024/01/28 05:39:42;;;;;;;19.13;6.82;;;;;;;;;;5079814;28;20077;-65
2024/01/28 05:42:09;;;;;;;17.40;6.65;;;;;;;;;;5077031;28;20072;-65
2024/01/28 05:44:36;;;;;;;17.98;6.90;;;;;;;;;;5077112;28;20044;-65
2024/01/28 05:47:04;;;;;;;14.27;6.80;;;;;;;;;;5071844;28;20087;-66
2024/01/28 05:49:31;;;;;;;20.95;6.97;;;;;;;;;;5081643;28;20051;-66
2024/01/28 05:52:00;;;;;;;22.17;7.00;;;;;;;;;;5074091;28;20079;-66
2024/01/28 05:54:28;;;;;;;20.10;7.05;;;;;;;;;;5080640;28;20048;-66
2024/01/28 05:56:55;;;;;;;23.75;6.90;;;;;;;;;;5076149;28;20044;-66
2024/01/28 05:59:22;;;;;;;27.52;7.22;;;;;;;;;;5079465;28;20059;-66
2024/01/28 06:01:50;;;;;;;21.85;6.50;;;;;;;;;;5079397;28;20060;-66
2024/01/28 06:04:17;;;;;;;23.23;7.22;;;;;;;;;;5083092;28;20048;-65
2024/01/28 06:06:44;;;;;;;15.80;6.63;;;;;;;;;;5085541;28;20463;-66
2024/01/28 06:09:13;;;;;;;15.30;6.40;;;;;;;;;;5084266;28;20044;-66
2024/01/28 06:11:43;;;;;;;23.15;6.40;;;;;;;;;;5082218;28;20052;-66
2024/01/28 06:14:11;;;;;;;20.92;6.32;;;;;;;;;;5082985;28;20059;-66
2024/01/28 06:16:38;;;;;;;19.10;6.55;;;;;;;;;;5080887;28;20056;-66
2024/01/28 06:19:05;;;;;;;14.77;5.93;;;;;;;;;;5078393;28;20402;-66
2024/01/28 06:21:33;;;;;;;17.20;7.05;;;;;;;;;;5077288;28;20052;-66
2024/01/28 06:24:00;;;;;;;19.10;6.60;;;;;;;;;;5063927;28;20056;-66
2024/01/28 06:26:29;;;;;;;21.77;6.50;;;;;;;;;;5078521;28;20049;-66
2024/01/28 06:28:56;;;;;;;15.02;5.75;;;;;;;;;;5083373;28;20052;-66
2024/01/28 06:31:24;;;;;;;16.20;5.95;;;;;;;;;;5082247;28;20057;-66
2024/01/28 06:33:51;;;;;;;16.75;6.40;;;;;;;;;;5086347;28;20048;-66
2024/01/28 06:36:22;;;;;;;16.23;6.53;;;;;;;;;;5080288;28;20039;-66
2024/01/28 06:38:49;;;;;;;18.35;6.53;;;;;;;;;;5082185;28;20056;-66
2024/01/28 06:41:17;;;;;;;19.58;6.70;;;;;;;;;;5078151;28;20102;-66
2024/01/28 06:43:46;;;;;;;20.65;7.30;;;;;;;;;;5073569;28;20381;-66
2024/01/28 06:46:15;;;;;;;26.75;6.22;;;;;;;;;;5078752;28;20055;-66
2024/01/28 06:48:43;;;;;;;15.30;5.90;;;;;;;;;;5078441;28;20467;-66
2024/01/28 06:51:10;;;;;;;20.08;6.57;;;;;;;;;;5077604;28;20052;-66
2024/01/28 06:53:37;;;;;;;17.27;7.63;;;;;;;;;;5082043;28;20414;-66
2024/01/28 06:56:05;;;;;;;17.75;6.97;;;;;;;;;;5074829;28;20062;-66
2024/01/28 06:58:32;;;;;;;15.43;6.45;;;;;;;;;;5075250;28;20047;-66
2024/01/28 07:01:01;;;;;;;15.35;6.85;;;;;;;;;;5070048;28;20067;-66
2024/01/28 07:03:28;;;;;;;19.40;7.13;;;;;;;;;;5074546;28;20052;-66
2024/01/28 07:05:55;;;;;;;20.90;7.43;;;;;;;;;;5072191;28;20136;-66
2024/01/28 07:08:23;;;;;;;22.73;7.47;;;;;;;;;;5085572;28;20056;-66
2024/01/28 07:10:51;;;;;;;26.05;6.35;;;;;;;;;;5079955;28;20506;-66
2024/01/28 07:13:18;;;;;;;17.23;7.05;;;;;;;;;;5069861;28;20045;-66
2024/01/28 07:15:45;;;;;;;20.38;6.93;;;;;;;;;;5082266;28;20494;-66
2024/01/28 07:18:14;;;;;;;18.83;6.95;;;;;;;;;;5079896;28;20052;-66
2024/01/28 07:20:41;;;;;;;16.63;6.40;;;;;;;;;;5074881;28;20499;-66
2024/01/28 07:23:09;;;;;;;17.27;7.05;;;;;;;;;;5076011;28;20044;-66
2024/01/28 07:25:36;;;;;;;20.40;6.90;;;;;;;;;;5083994;28;20048;-66
2024/01/28 07:28:04;;;;;;;19.45;7.45;;;;;;;;;;5074757;28;20124;-66
2024/01/28 07:30:32;;;;;;;17.25;6.85;;;;;;;;;;5057803;28;21041;-66
2024/01/28 07:32:59;;;;;;;22.05;7.25;;;;;;;;;;5062086;28;20053;-66
2024/01/28 07:35:28;;;;;;;16.00;6.40;;;;;;;;;;5080020;28;20056;-66
2024/01/28 07:37:55;;;;;;;16.98;7.05;;;;;;;;;;5052741;28;20049;-66
2024/01/28 07:40:23;;;;;;;21.65;7.10;;;;;;;;;;5072861;28;20467;-66
2024/01/28 07:42:50;;;;;;;15.00;7.10;;;;;;;;;;5079307;28;20056;-66
2024/01/28 07:45:19;;;;;;;19.60;6.97;;;;;;;;;;5061625;28;20060;-66
2024/01/28 07:47:46;;;;;;;21.15;7.30;;;;;;;;;;5081433;28;20143;-66
2024/01/28 07:50:14;;;;;;;15.95;7.20;;;;;;;;;;5080644;28;20112;-66
2024/01/28 07:52:43;;;;;;;28.02;7.22;;;;;;;;;;5077748;28;20052;-66
2024/01/28 07:55:11;;;;;;;17.88;7.60;;;;;;;;;;5079636;28;20041;-66
2024/01/28 07:57:39;;;;;;;28.17;6.82;;;;;;;;;;5079607;28;20138;-66
2024/01/28 08:00:09;;;;;;;25.17;7.50;;;;;;;;;;5078139;28;20059;-66
2024/01/28 08:02:37;;;;;;;22.60;7.20;;;;;;;;;;5075756;28;20511;-66
2024/01/28 08:05:04;;;;;;;18.13;6.60;;;;;;;;;;5077260;28;20052;-66
2024/01/28 08:07:31;;;;;;;19.23;6.38;;;;;;;;;;5072905;28;20054;-66
2024/01/28 08:10:01;;;;;;;18.23;6.38;;;;;;;;;;5076754;28;20048;-67
2024/01/28 08:12:28;;;;;;;16.20;6.20;;;;;;;;;;5065239;28;20548;-66
2024/01/28 08:14:56;;;;;;;15.52;5.78;;;;;;;;;;5085099;28;20471;-66
2024/01/28 08:17:23;;;;;;;13.90;6.22;;;;;;;;;;5076554;28;20406;-67
2024/01/28 08:19:50;;;;;;;15.15;6.03;;;;;;;;;;5081247;28;20063;-66
2024/01/28 08:22:17;;;;;;;15.40;6.63;;;;;;;;;;5074980;28;20082;-67
2024/01/28 08:24:45;;;;;;;27.27;6.45;;;;;;;;;;5079530;28;20048;-67
2024/01/28 08:27:14;;;;;;;26.25;6.07;;;;;;;;;;5075669;28;20048;-67
2024/01/28 08:29:41;;;;;;;20.02;6.82;;;;;;;;;;5075431;28;20129;-67
2024/01/28 08:32:09;;;;;;;21.67;6.75;;;;;;;;;;5077072;28;20052;-67
2024/01/28 08:34:36;;;;;;;16.02;6.07;;;;;;;;;;5077080;28;20048;-67
2024/01/28 08:37:03;;;;;;;17.30;5.60;;;;;;;;;;5060549;28;20079;-67
2024/01/28 08:39:30;;;;;;;19.00;5.93;;;;;;;;;;5080165;28;20055;-67
2024/01/28 08:41:59;;;;;;;21.30;6.78;;;;;;;;;;5081130;28;20048;-66
2024/01/28 08:44:28;;;;;;;18.17;6.07;;;;;;;;;;5071578;28;20495;-67
2024/01/28 08:46:55;;;;;;;15.60;5.57;;;;;;;;;;5051524;28;20059;-66
2024/01/28 08:49:22;;;;;;;14.82;6.28;;;;;;;;;;5080360;28;20040;-67
2024/01/28 08:51:50;;;;;;;13.38;5.35;;;;;;;;;;5077324;28;20052;-67
2024/01/28 08:54:17;;;;;;;17.25;5.25;;;;;;;;;;5070114;28;20063;-67
2024/01/28 08:56:44;;;;;;;13.38;5.20;;;;;;;;;;5076033;28;20063;-67
2024/01/28 08:59:12;;;;;;;14.68;5.05;;;;;;;;;;5068886;28;20048;-67
2024/01/28 09:01:41;;;;;;;16.70;6.28;;;;;;;;;;5077976;28;20049;-66
2024/01/28 09:04:08;;;;;;;19.58;5.30;;;;;;;;;;5054159;28;20060;-67
2024/01/28 09:06:37;;;;;;;15.00;5.82;;;;;;;;;;5077180;28;20123;-67
2024/01/28 09:09:08;;;;;;;16.40;5.78;;;;;;;;;;5070626;28;20052;-67
2024/01/28 09:11:35;;;;;;;16.70;4.85;;;;;;;;;;5077059;28;20053;-67
2024/01/28 09:14:02;;;;;;;23.38;5.25;;;;;;;;;;5079253;28;20048;-67
2024/01/28 09:16:30;;;;;;;15.15;5.80;;;;;;;;;;5058478;28;20047;-66
2024/01/28 09:19:03;;;;;;;11.10;4.90;;;;;;;;;;5068802;28;20065;-67
2024/01/28 09:21:30;;;;;;;14.05;5.32;;;;;;;;;;5078042;28;20132;-66
2024/01/28 09:23:58;;;;;;;16.20;5.10;;;;;;;;;;5076026;28;20068;-66
2024/01/28 09:26:27;;;;;;;13.05;4.93;;;;;;;;;;5073272;28;20056;-66
2024/01/28 09:28:55;;;;;;;14.45;4.82;;;;;;;;;;5051635;28;20045;-66
2024/01/28 09:31:22;;;;;;;15.18;4.65;;;;;;;;;;5076843;28;20049;-66
2024/01/28 09:33:49;;;;;;;16.10;4.03;;;;;;;;;;5079506;28;20059;-66
2024/01/28 09:36:18;;;;;;;16.65;4.70;;;;;;;;;;5078160;28;20048;-66
2024/01/28 09:38:45;;;;;;;12.15;4.78;;;;;;;;;;5072874;28;20080;-66
2024/01/28 09:41:19;;;;;;;9.75;4.25;;;;;;;;;;5072383;28;20052;-67
2024/01/28 09:43:46;;;;;;;14.77;4.50;;;;;;;;;;5070216;28;20060;-66
2024/01/28 09:46:14;;;;;;;12.95;4.15;;;;;;;;;;5056691;28;20059;-66
2024/01/28 09:48:44;;;;;;;18.13;4.60;;;;;;;;;;5075836;28;20041;-66
2024/01/28 09:51:12;;;;;;;14.50;4.45;;;;;;;;;;5078108;28;20089;-66
2024/01/28 09:53:41;;;;;;;15.88;4.70;;;;;;;;;;5060064;28;20143;-66
2024/01/28 09:56:13;;;;;;;12.95;4.57;;;;;;;;;;5074013;28;20407;-66
2024/01/28 09:58:41;;;;;;;11.55;4.07;;;;;;;;;;5080515;28;20091;-66
2024/01/28 10:01:09;;;;;;;16.27;4.65;;;;;;;;;;5080121;28;20057;-66
2024/01/28 10:03:36;;;;;;;11.95;3.78;;;;;;;;;;5081048;28;20048;-66
2024/01/28 10:06:04;;;;;;;14.68;4.40;;;;;;;;;;5084192;28;20080;-66
2024/01/28 10:08:32;;;;;;;11.45;4.13;;;;;;;;;;5080711;28;20052;-67
2024/01/28 10:11:01;;;;;;;14.40;4.13;;;;;;;;;;5079676;28;20048;-66
2024/01/28 10:13:29;;;;;;;9.63;4.28;;;;;;;;;;5073699;28;20056;-66
2024/01/28 10:15:56;;;;;;;13.32;3.55;;;;;;;;;;5063388;28;20056;-66
2024/01/28 10:18:24;;;;;;;13.80;3.30;;;;;;;;;;5087466;28;20051;-66
2024/01/28 10:20:51;;;;;;;11.45;2.80;;;;;;;;;;5077744;28;20492;-66
2024/01/28 10:23:19;;;;;;;8.85;3.15;;;;;;;;;;5078853;28;20159;-66
2024/01/28 10:25:46;;;;;;;13.27;3.55;;;;;;;;;;5077537;28;20049;-67
2024/01/28 10:28:17;;;;;;;6.70;3.00;;;;;;;;;;5076849;28;20048;-67
2024/01/28 10:30:45;;;;;;;10.52;3.03;;;;;;;;;;5082246;28;20040;-67
2024/01/28 10:33:12;;;;;;;8.18;2.95;;;;;;;;;;5084913;28;20048;-66
2024/01/28 10:35:39;;;;;;;10.52;2.85;;;;;;;;;;5078398;28;20044;-66
2024/01/28 10:38:12;;;;;;;9.20;2.97;;;;;;;;;;5081196;28;20052;-66
2024/01/28 10:40:42;;;;;;;9.98;3.17;;;;;;;;;;5075705;28;20055;-66
2024/01/28 10:43:15;;;;;;;7.57;3.08;;;;;;;;;;5077584;28;20075;-66
2024/01/28 10:45:45;;;;;;;11.60;3.35;;;;;;;;;;5077414;28;20055;-66
2024/01/28 10:48:13;;;;;;;9.07;2.92;;;;;;;;;;5075755;28;20139;-66
2024/01/28 10:50:41;;;;;;;11.13;3.03;;;;;;;;;;5063412;28;20071;-66
2024/01/28 10:53:11;;;;;;;9.15;2.70;;;;;;;;;;5081443;28;20488;-66
2024/01/28 10:55:40;;;;;;;13.68;3.63;;;;;;;;;;5058476;28;20527;-67
2024/01/28 10:58:08;;;;;;;13.15;3.33;;;;;;;;;;5072110;28;20491;-66
2024/01/28 11:00:35;;;;;;;6.28;3.03;;;;;;;;;;5074798;28;20638;-66
2024/01/28 11:03:07;;;;;;;11.02;3.03;;;;;;;;;;5071747;28;20079;-67
2024/01/28 11:05:35;;;;;;;8.27;2.92;;;;;;;;;;5085954;28;20055;-66
2024/01/28 11:08:02;;;;;;;9.73;3.45;;;;;;;;;;5076677;28;20483;-66
2024/01/28 11:10:30;;;;;;;9.43;2.58;;;;;;;;;;5078782;28;20044;-66
2024/01/28 11:12:57;;;;;;;8.65;2.78;;;;;;;;;;5084576;28;20151;-67
2024/01/28 11:15:26;;;;;;;7.95;2.88;;;;;;;;;;5078962;28;20499;-67
2024/01/28 11:17:56;;;;;;;8.70;2.55;;;;;;;;;;5078774;28;20463;-66
2024/01/28 11:20:27;;;;;;;7.43;2.70;;;;;;;;;;5080911;28;20048;-66
2024/01/28 11:22:55;;;;;;;7.85;2.78;;;;;;;;;;5079612;28;20515;-67
2024/01/28 11:25:24;;;;;;;6.53;2.53;;;;;;;;;;5075941;28;20072;-66
2024/01/28 11:27:52;;;;;;;8.65;2.42;;;;;;;;;;5077948;28;20048;-67
2024/01/28 11:30:23;;;;;;;8.07;2.80;;;;;;;;;;5074617;28;20479;-66
2024/01/28 11:32:52;;;;;;;5.85;2.60;;;;;;;;;;5074490;28;20052;-67
2024/01/28 11:35:19;;;;;;;7.72;2.67;;;;;;;;;;5080407;28;20070;-66
2024/01/28 11:37:53;;;;;;;10.73;3.20;;;;;;;;;;5075515;28;20048;-67
2024/01/28 11:40:23;;;;;;;7.88;2.67;;;;;;;;;;5073922;28;20482;-66
2024/01/28 11:42:53;;;;;;;11.13;2.80;;;;;;;;;;5079676;28;20068;-66
2024/01/28 11:45:20;;;;;;;7.07;2.55;;;;;;;;;;5071359;28;20052;-67
2024/01/28 11:47:48;;;;;;;6.68;2.83;;;;;;;;;;5074762;28;20102;-67
2024/01/28 11:50:15;;;;;;;10.00;2.83;;;;;;;;;;5060575;28;20044;-67
2024/01/28 11:52:43;;;;;;;7.93;2.42;;;;;;;;;;5072278;28;20544;-67
2024/01/28 11:55:13;;;;;;;5.95;2.33;;;;;;;;;;5074355;28;20048;-66
2024/01/28 11:57:41;;;;;;;8.80;2.25;;;;;;;;;;5078570;28;20048;-67
2024/01/28 12:00:09;;;;;;;7.05;2.50;;;;;;;;;;5080015;28;20044;-67
2024/01/28 12:02:37;;;;;;;8.15;2.40;;;;;;;;;;5074914;28;20059;-67
2024/01/28 12:05:05;;;;;;;7.97;2.85;;;;;;;;;;5078123;28;20520;-67
2024/01/28 12:07:32;;;;;;;7.22;2.40;;;;;;;;;;5075455;28;20173;-67
2024/01/28 12:10:00;;;;;;;8.82;2.15;;;;;;;;;;5074161;28;20055;-67
2024/01/28 12:12:34;;;;;;;5.82;2.17;;;;;;;;;;5074238;28;20060;-67
2024/01/28 12:15:01;;;;;;;8.48;2.00;;;;;;;;;;5080907;28;20074;-67
2024/01/28 12:17:29;;;;;;;6.35;2.33;;;;;;;;;;5077462;28;20040;-67
2024/01/28 12:19:56;;;;;;;6.45;2.03;;;;;;;;;;5077671;28;20050;-67
2024/01/28 12:22:23;;;;;;;5.72;2.22;;;;;;;;;;5073437;28;20398;-67
2024/01/28 12:24:51;;;;;;;7.93;2.45;;;;;;;;;;5072306;28;20063;-67
2024/01/28 12:27:18;;;;;;;6.70;2.55;;;;;;;;;;5084393;28;20052;-67
2024/01/28 12:29:47;;;;;;;8.52;3.05;;;;;;;;;;5080979;28;20060;-67
2024/01/28 12:32:15;;;;;;;7.57;2.38;;;;;;;;;;5080012;28;20051;-67
2024/01/28 12:34:42;;;;;;;9.35;3.20;;;;;;;;;;5079790;28;20043;-67
2024/01/28 12:37:09;;;;;;;7.75;2.35;;;;;;;;;;5074308;28;20218;-67
2024/01/28 12:39:36;;;;;;;7.25;2.47;;;;;;;;;;5074611;28;20121;-67
2024/01/28 12:42:04;;;;;;;7.18;2.78;;;;;;;;;;5077741;28;20053;-67
2024/01/28 12:44:31;;;;;;;8.65;3.03;;;;;;;;;;5082809;28;20518;-67
2024/01/28 12:47:00;;;;;;;7.43;2.58;;;;;;;;;;5062653;28;20059;-67
2024/01/28 12:49:27;;;;;;;9.82;3.30;;;;;;;;;;5063626;28;20079;-67
2024/01/28 12:51:54;;;;;;;6.72;2.38;;;;;;;;;;5079859;28;20052;-67
2024/01/28 12:54:21;;;;;;;4.85;1.98;;;;;;;;;;5084465;28;20510;-67
2024/01/28 12:56:49;;;;;;;8.23;2.00;;;;;;;;;;5077001;28;20039;-67
2024/01/28 12:59:17;;;;;;;6.30;2.25;;;;;;;;;;5080148;28;20040;-67
2024/01/28 13:01:44;;;;;;;6.47;2.25;;;;;;;;;;5076673;28;20585;-67
2024/01/28 13:04:13;;;;;;;11.65;2.33;;;;;;;;;;5074310;28;20052;-67
2024/01/28 13:06:40;;;;;;;10.35;3.03;;;;;;;;;;5076173;28;20741;-67
2024/01/28 13:09:09;;;;;;;6.63;2.50;;;;;;;;;;5076261;28;20044;-67
2024/01/28 13:11:37;;;;;;;6.95;2.35;;;;;;;;;;5079096;28;20080;-67
2024/01/28 13:14:07;;;;;;;6.10;2.13;;;;;;;;;;5072758;28;20138;-66
2024/01/28 13:16:36;;;;;;;7.30;2.30;;;;;;;;;;5070339;28;20074;-66
2024/01/28 13:19:03;;;;;;;8.13;2.20;;;;;;;;;;5073612;28;20057;-67
2024/01/28 13:21:32;;;;;;;6.88;2.50;;;;;;;;;;5075165;28;20048;-66
2024/01/28 13:23:59;;;;;;;8.82;2.40;;;;;;;;;;5082859;28;20068;-66
2024/01/28 13:26:27;;;;;;;5.10;2.17;;;;;;;;;;5078337;28;20048;-66
2024/01/28 13:28:54;;;;;;;7.65;2.35;;;;;;;;;;5078613;28;20048;-66
2024/01/28 13:31:21;;;;;;;7.75;2.30;;;;;;;;;;5084338;28;20075;-66
2024/01/28 13:33:49;;;;;;;6.13;2.47;;;;;;;;;;5076732;28;20049;-67
2024/01/28 13:36:17;;;;;;;5.43;1.90;;;;;;;;;;5063262;28;20060;-67
2024/01/28 13:38:46;;;;;;;6.60;2.50;;;;;;;;;;5086528;28;20080;-67
2024/01/28 13:41:14;;;;;;;5.10;2.13;;;;;;;;;;5064151;28;20052;-66
2024/01/28 13:43:41;;;;;;;6.88;2.00;;;;;;;;;;5078218;28;20059;-66
2024/01/28 13:46:08;;;;;;;5.32;2.30;;;;;;;;;;5080579;28;20048;-67
2024/01/28 13:48:36;;;;;;;4.28;1.80;;;;;;;;;;5083232;28;20483;-67
2024/01/28 13:51:03;;;;;;;6.10;1.83;;;;;;;;;;5083334;28;20056;-67
2024/01/28 13:53:30;;;;;;;9.30;2.17;;;;;;;;;;5077795;28;20716;-67
2024/01/28 13:55:59;;;;;;;4.85;1.67;;;;;;;;;;5078885;28;20055;-66
2024/01/28 13:58:26;;;;;;;4.85;1.80;;;;;;;;;;5077536;28;20040;-66
2024/01/28 14:00:54;;;;;;;4.88;1.90;;;;;;;;;;5073506;28;20399;-67
2024/01/28 14:03:21;;;;;;;5.70;2.15;;;;;;;;;;5073320;28;20171;-66
2024/01/28 14:05:49;;;;;;;5.20;2.10;;;;;;;;;;5075428;28;20476;-67
2024/01/28 14:08:16;;;;;;;6.68;2.35;;;;;;;;;;5074478;28;20054;-67
2024/01/28 14:10:43;;;;;;;6.88;2.13;;;;;;;;;;5077798;28;20039;-67
2024/01/28 14:13:12;;;;;;;5.95;1.92;;;;;;;;;;5072482;28;20131;-67
2024/01/28 14:15:39;;;;;;;4.15;1.80;;;;;;;;;;5075946;28;20063;-67
2024/01/28 14:18:07;;;;;;;4.68;1.77;;;;;;;;;;5057361;28;20045;-67
2024/01/28 14:20:34;;;;;;;4.40;1.80;;;;;;;;;;5075534;28;20487;-67
2024/01/28 14:23:01;;;;;;;5.25;1.88;;;;;;;;;;5073610;28;20159;-67
2024/01/28 14:25:28;;;;;;;3.95;1.50;;;;;;;;;;5079726;28;20044;-67
2024/01/28 14:27:56;;;;;;;7.03;2.20;;;;;;;;;;5071371;28;20491;-67
2024/01/28 14:30:24;;;;;;;6.95;1.90;;;;;;;;;;5072750;28;20055;-67
2024/01/28 14:32:51;;;;;;;6.95;1.98;;;;;;;;;;5069941;28;20066;-67
2024/01/28 14:35:19;;;;;;;5.78;1.80;;;;;;;;;;5076878;28;20048;-67
2024/01/28 14:37:47;;;;;;;7.72;2.03;;;;;;;;;;5081088;28;20072;-67